createdAt,value
2023-02-18T00:02:54.585Z,2.20
2023-02-18T00:06:09.782Z,1.40
2023-02-18T00:09:21.540Z,1.33
2023-02-18T00:12:33.640Z,1.93
2023-02-18T00:15:33.631Z,2.30
2023-02-18T00:18:47.650Z,2.40
2023-02-18T00:21:59.617Z,1.85
2023-02-18T00:25:11.587Z,1.77
2023-02-18T00:28:11.631Z,2.00
2023-02-18T00:31:35.766Z,2.10
2023-02-18T00:34:49.674Z,2.30
2023-02-18T00:38:15.698Z,1.50
2023-02-18T00:41:39.739Z,1.73
2023-02-18T00:44:52.697Z,1.53
2023-02-18T00:48:04.778Z,1.47
2023-02-18T00:51:30.697Z,2.07
2023-02-18T00:54:54.674Z,1.70
2023-02-18T00:58:06.816Z,2.50
2023-02-18T01:01:18.758Z,1.93
2023-02-18T01:04:31.717Z,2.30
2023-02-18T01:07:57.717Z,2.47
2023-02-18T01:11:21.734Z,2.10
2023-02-18T01:14:21.786Z,2.50
2023-02-18T01:17:33.874Z,2.40
2023-02-18T01:20:45.806Z,1.53
2023-02-18T01:24:12.877Z,3.40
2023-02-18T01:27:12.770Z,1.90
2023-02-18T01:30:39.899Z,2.40
2023-02-18T01:33:39.966Z,2.93
2023-02-18T01:36:51.863Z,3.40
2023-02-18T01:40:05.864Z,2.80
2023-02-18T01:43:18.916Z,2.80
2023-02-18T01:46:31.944Z,2.83
2023-02-18T01:49:55.927Z,2.73
2023-02-18T01:52:55.944Z,5.70
2023-02-18T01:56:21.903Z,3.30
2023-02-18T01:59:33.960Z,4.10
2023-02-18T02:03:00.980Z,3.87
2023-02-18T02:06:24.953Z,3.87
2023-02-18T02:09:36.959Z,3.40
2023-02-18T02:13:02.964Z,5.13
2023-02-18T02:16:26.969Z,2.77
2023-02-18T02:19:57.065Z,3.25
2023-02-18T02:23:17.046Z,4.83
2023-02-18T02:26:49.094Z,4.70
2023-02-18T02:30:07.003Z,7.10
2023-02-18T02:33:42.024Z,4.03
2023-02-18T02:36:55.999Z,4.47
2023-02-18T02:40:23.079Z,4.70
2023-02-18T02:43:48.986Z,3.65
2023-02-18T02:47:13.049Z,4.63
2023-02-18T02:50:26.117Z,3.70
2023-02-18T02:53:52.066Z,4.97
2023-02-18T02:57:16.091Z,5.27
2023-02-18T03:00:41.150Z,3.57
2023-02-18T03:04:00.136Z,4.87
2023-02-18T03:07:34.873Z,6.35
2023-02-18T03:11:07.147Z,4.40
2023-02-18T03:14:32.148Z,7.45
2023-02-18T03:17:56.200Z,6.40
2023-02-18T03:21:21.208Z,6.27
2023-02-18T03:24:45.166Z,6.45
2023-02-18T03:28:11.227Z,7.10
2023-02-18T03:31:24.379Z,8.05
2023-02-18T03:34:48.336Z,7.13
2023-02-18T03:38:00.169Z,7.73
2023-02-18T03:41:24.251Z,9.90
2023-02-18T03:44:50.262Z,6.03
2023-02-18T03:48:02.319Z,9.07
2023-02-18T03:51:18.373Z,9.73
2023-02-18T03:54:30.277Z,7.23
2023-02-18T03:57:30.294Z,11.67
2023-02-18T04:00:56.312Z,11.80
2023-02-18T04:04:09.339Z,15.00
2023-02-18T04:07:09.308Z,11.53
2023-02-18T04:10:23.384Z,10.70
2023-02-18T04:13:35.350Z,10.00
2023-02-18T04:17:01.388Z,12.80
2023-02-18T04:20:01.378Z,10.70
2023-02-18T04:23:13.407Z,12.73
2023-02-18T04:26:13.392Z,11.25
2023-02-18T04:29:25.416Z,10.35
2023-02-18T04:32:42.401Z,11.20
2023-02-18T04:35:55.441Z,10.50
2023-02-18T04:38:55.508Z,15.93
2023-02-18T04:42:07.372Z,13.40
2023-02-18T04:45:19.466Z,14.00
2023-02-18T04:48:47.445Z,12.60
2023-02-18T04:51:47.407Z,15.05
2023-02-18T04:54:59.495Z,13.77
2023-02-18T04:58:11.521Z,13.70
2023-02-18T05:01:35.493Z,12.37
2023-02-18T05:04:49.478Z,13.87
2023-02-18T05:08:02.560Z,12.80
2023-02-18T05:11:02.486Z,12.50
2023-02-18T05:14:14.538Z,12.07
2023-02-18T05:17:15.601Z,12.55
2023-02-18T05:20:43.520Z,12.15
2023-02-18T05:23:43.649Z,11.77
2023-02-18T05:26:56.554Z,12.90
2023-02-18T05:29:56.661Z,12.27
2023-02-18T05:33:09.580Z,11.45
2023-02-18T05:36:23.695Z,11.97
2023-02-18T05:39:35.605Z,12.50
2023-02-18T05:42:36.611Z,12.33
2023-02-18T05:46:00.687Z,12.15
2023-02-18T05:49:12.666Z,11.67
2023-02-18T05:52:38.665Z,11.00
2023-02-18T05:55:50.660Z,11.60
2023-02-18T05:59:02.729Z,10.50
2023-02-18T06:02:14.722Z,9.37
2023-02-18T06:05:27.734Z,9.80
2023-02-18T06:08:41.736Z,10.13
2023-02-18T06:11:53.681Z,10.47
2023-02-18T06:14:54.776Z,9.90
2023-02-18T06:18:06.767Z,9.20
2023-02-18T06:21:06.891Z,7.90
2023-02-18T06:24:32.781Z,8.77
2023-02-18T06:27:32.797Z,8.07
2023-02-18T06:30:47.795Z,8.53
2023-02-18T06:33:48.777Z,7.67
2023-02-18T06:37:01.447Z,8.67
2023-02-18T06:40:13.825Z,6.83
2023-02-18T06:43:37.788Z,7.63
2023-02-18T06:46:40.814Z,5.67
2023-02-18T06:49:52.849Z,7.40
2023-02-18T06:52:52.821Z,5.70
2023-02-18T06:56:18.799Z,5.85
2023-02-18T06:59:18.802Z,5.33
2023-02-18T07:02:42.835Z,4.33
2023-02-18T07:05:54.954Z,4.10
2023-02-18T07:09:06.842Z,4.13
2023-02-18T07:12:20.842Z,4.55
2023-02-18T07:15:34.950Z,4.35
2023-02-18T07:18:34.900Z,4.27
2023-02-18T07:21:46.945Z,3.43
2023-02-18T07:24:46.919Z,3.47
2023-02-18T07:28:11.921Z,3.77
2023-02-18T07:31:12.041Z,4.43
2023-02-18T07:34:24.975Z,4.00
2023-02-18T07:37:37.017Z,4.03
2023-02-18T07:41:01.952Z,3.27
2023-02-18T07:44:16.033Z,3.70
2023-02-18T07:47:40.025Z,4.30
2023-02-18T07:50:41.139Z,3.70
2023-02-18T07:53:54.081Z,4.10
2023-02-18T07:56:55.028Z,3.50
2023-02-18T08:00:21.966Z,4.30
2023-02-18T08:03:46.100Z,3.85
2023-02-18T08:06:59.064Z,3.90
2023-02-18T08:10:11.013Z,3.93
2023-02-18T08:13:11.048Z,4.40
2023-02-18T08:16:37.107Z,4.20
2023-02-18T08:19:37.180Z,3.90
2023-02-18T08:23:02.121Z,3.57
2023-02-18T08:26:14.143Z,3.67
2023-02-18T08:29:26.110Z,3.50
2023-02-18T08:32:40.122Z,3.50
2023-02-18T08:36:05.169Z,4.35
2023-02-18T08:39:17.177Z,3.50
2023-02-18T08:42:30.208Z,3.37
2023-02-18T08:45:30.192Z,3.55
2023-02-18T08:48:56.197Z,3.43
2023-02-18T08:51:57.309Z,3.60
2023-02-18T08:55:09.257Z,3.10
2023-02-18T08:58:12.334Z,3.10
2023-02-18T09:01:36.282Z,2.73
2023-02-18T09:04:50.355Z,2.83
2023-02-18T09:08:03.267Z,3.27
2023-02-18T09:11:03.272Z,3.05
2023-02-18T09:14:28.312Z,2.90
2023-02-18T09:17:28.232Z,3.10
2023-02-18T09:20:53.266Z,2.50
2023-02-18T09:23:53.297Z,2.77
2023-02-18T09:27:05.258Z,2.55
2023-02-18T09:30:05.554Z,2.35
2023-02-18T09:33:17.443Z,2.10
2023-02-18T09:36:31.315Z,2.67
2023-02-18T09:39:43.410Z,2.30
2023-02-18T09:42:55.358Z,1.80
2023-02-18T09:46:22.498Z,2.07
2023-02-18T09:49:37.413Z,1.90
2023-02-18T09:53:03.439Z,1.80
2023-02-18T09:56:15.389Z,1.90
2023-02-18T09:59:39.384Z,1.90
2023-02-18T10:02:51.509Z,2.10
2023-02-18T10:06:17.402Z,1.90
2023-02-18T10:09:31.434Z,1.23
2023-02-18T10:12:56.433Z,1.70
2023-02-18T10:16:08.785Z,1.37
2023-02-18T10:19:33.485Z,1.60
2023-02-18T10:22:46.512Z,2.10
2023-02-18T10:26:13.493Z,1.63
2023-02-18T10:29:25.478Z,1.80
2023-02-18T10:32:49.496Z,1.67
2023-02-18T10:36:01.553Z,1.95
2023-02-18T10:39:28.507Z,2.00
2023-02-18T10:42:43.534Z,2.33
2023-02-18T10:46:07.585Z,2.07
2023-02-18T10:49:25.594Z,2.10
2023-02-18T10:52:49.639Z,1.77
2023-02-18T10:56:02.662Z,2.00
2023-02-18T10:59:28.590Z,1.80
2023-02-18T11:02:40.563Z,2.23
2023-02-18T11:06:04.567Z,2.10
2023-02-18T11:09:16.591Z,1.90
2023-02-18T11:12:40.727Z,2.05
2023-02-18T11:15:53.754Z,1.95
2023-02-18T11:19:06.659Z,1.80
2023-02-18T11:22:18.718Z,1.93
2023-02-18T11:25:46.678Z,2.60
2023-02-18T11:29:01.619Z,1.93
2023-02-18T11:32:26.701Z,1.90
2023-02-18T11:35:41.708Z,2.55
2023-02-18T11:39:06.721Z,1.93
2023-02-18T11:42:19.751Z,2.40
2023-02-18T11:45:51.751Z,2.23
2023-02-18T11:49:05.759Z,2.37
2023-02-18T11:52:30.829Z,2.05
2023-02-18T11:55:42.812Z,3.27
2023-02-18T11:59:06.807Z,2.47
2023-02-18T12:02:19.841Z,1.90
2023-02-18T12:05:46.809Z,1.60
2023-02-18T12:08:58.907Z,1.67
2023-02-18T12:12:22.875Z,3.03
2023-02-18T12:15:34.915Z,1.75
2023-02-18T12:19:01.907Z,2.00
2023-02-18T12:22:18.822Z,2.87
2023-02-18T12:25:46.850Z,1.80
2023-02-18T12:29:01.933Z,2.23
2023-02-18T12:32:28.891Z,2.00
2023-02-18T12:35:43.944Z,1.90
2023-02-18T12:39:16.869Z,2.20
2023-02-18T12:42:37.002Z,1.70
2023-02-18T12:46:04.028Z,1.90
2023-02-18T12:49:18.946Z,1.93
2023-02-18T12:52:44.893Z,1.80
2023-02-18T12:55:59.950Z,1.50
2023-02-18T12:59:25.975Z,2.30
2023-02-18T13:02:40.963Z,1.73
2023-02-18T13:06:04.973Z,2.00
2023-02-18T13:09:18.963Z,1.90
2023-02-18T13:12:42.980Z,1.70
2023-02-18T13:15:57.020Z,1.60
2023-02-18T13:19:24.096Z,2.30
2023-02-18T13:22:36.038Z,1.70
2023-02-18T13:26:01.120Z,1.37
2023-02-18T13:29:12.050Z,2.10
2023-02-18T13:32:38.074Z,1.87
2023-02-18T13:35:50.124Z,1.40
2023-02-18T13:39:22.121Z,1.40
2023-02-18T13:42:49.169Z,2.00
2023-02-18T13:46:29.197Z,1.80
2023-02-18T13:49:43.120Z,1.97
2023-02-18T13:53:07.118Z,2.00
2023-02-18T13:56:20.115Z,1.53
2023-02-18T13:59:45.168Z,1.70
2023-02-18T14:02:58.365Z,1.70
2023-02-18T14:06:23.196Z,1.77
2023-02-18T14:09:51.202Z,1.63
2023-02-18T14:13:25.195Z,1.77
2023-02-18T14:16:37.254Z,1.95
2023-02-18T14:19:49.249Z,1.50
2023-02-18T14:23:04.281Z,1.77
2023-02-18T14:26:30.288Z,1.70
2023-02-18T14:29:43.305Z,1.83
2023-02-18T14:33:07.240Z,2.00
2023-02-18T14:36:19.393Z,1.75
2023-02-18T14:39:53.235Z,2.50
2023-02-18T14:43:06.302Z,1.83
2023-02-18T14:46:31.399Z,2.60
2023-02-18T14:49:46.309Z,1.47
2023-02-18T14:53:10.345Z,1.65
2023-02-18T14:56:24.418Z,2.13
2023-02-18T14:59:49.430Z,2.33
2023-02-18T15:03:01.358Z,2.17
2023-02-18T15:06:14.387Z,1.80
2023-02-18T15:09:26.533Z,2.17
2023-02-18T15:12:52.339Z,1.70
2023-02-18T15:16:04.489Z,1.63
2023-02-18T15:19:28.382Z,2.00
2023-02-18T15:22:40.413Z,1.40
2023-02-18T15:25:52.434Z,2.00
2023-02-18T15:29:05.440Z,1.63
2023-02-18T15:32:33.474Z,1.30
2023-02-18T15:35:45.521Z,1.63
2023-02-18T15:38:58.435Z,1.53
2023-02-18T15:42:10.495Z,1.70
2023-02-18T15:45:40.429Z,1.45
2023-02-18T15:48:53.468Z,1.83
2023-02-18T15:52:22.514Z,1.53
2023-02-18T15:55:35.569Z,1.45
2023-02-18T15:58:59.472Z,1.60
2023-02-18T16:02:14.521Z,1.80
2023-02-18T16:05:29.494Z,1.40
2023-02-18T16:08:41.609Z,2.10
2023-02-18T16:12:08.571Z,1.60
2023-02-18T16:15:20.547Z,2.10
2023-02-18T16:18:49.518Z,1.77
2023-02-18T16:22:01.558Z,1.37
2023-02-18T16:25:25.587Z,2.23
2023-02-18T16:28:37.636Z,1.70
2023-02-18T16:31:49.785Z,2.20
2023-02-18T16:35:03.680Z,1.67
2023-02-18T16:38:30.617Z,1.60
2023-02-18T16:41:30.660Z,1.60
2023-02-18T16:44:54.702Z,1.20
2023-02-18T16:48:07.723Z,1.73
2023-02-18T16:51:35.684Z,2.37
2023-02-18T16:54:35.765Z,1.75
2023-02-18T16:57:48.457Z,1.90
2023-02-18T17:00:47.788Z,1.83
2023-02-18T17:04:11.764Z,1.47
2023-02-18T17:07:25.776Z,1.37
2023-02-18T17:10:49.767Z,1.80
2023-02-18T17:13:49.790Z,1.63
2023-02-18T17:17:13.742Z,1.40
2023-02-18T17:20:13.811Z,1.77
2023-02-18T17:23:40.816Z,1.40
2023-02-18T17:26:52.844Z,1.73
2023-02-18T17:30:05.831Z,1.43
2023-02-18T17:33:17.940Z,1.47
2023-02-18T17:36:29.837Z,1.60
2023-02-18T17:39:43.833Z,1.70
2023-02-18T17:42:55.840Z,1.87
2023-02-18T17:46:09.109Z,2.07
2023-02-18T17:49:33.899Z,1.67
2023-02-18T17:52:47.848Z,1.40
2023-02-18T17:56:13.932Z,2.00
2023-02-18T17:59:13.930Z,1.70
2023-02-18T18:02:39.908Z,1.70
2023-02-18T18:06:04.967Z,1.33
2023-02-18T18:09:04.889Z,1.70
2023-02-18T18:12:31.954Z,1.60
2023-02-18T18:15:47.921Z,1.65
2023-02-18T18:19:11.927Z,2.10
2023-02-18T18:22:11.958Z,1.55
2023-02-18T18:25:46.014Z,1.17
2023-02-18T18:28:59.994Z,1.03
2023-02-18T18:32:12.015Z,1.53
2023-02-18T18:35:12.132Z,1.60
2023-02-18T18:38:24.067Z,1.50
2023-02-18T18:41:37.076Z,1.70
2023-02-18T18:45:03.076Z,2.37
2023-02-18T18:48:15.005Z,2.03
2023-02-18T18:51:39.143Z,2.20
2023-02-18T18:54:39.040Z,1.60
2023-02-18T18:57:51.151Z,1.80
2023-02-18T19:01:05.190Z,2.40
2023-02-18T19:04:17.160Z,2.17
2023-02-18T19:07:17.067Z,1.47
2023-02-18T19:10:30.249Z,2.00
2023-02-18T19:13:43.085Z,2.50
2023-02-18T19:17:09.202Z,1.80
2023-02-18T19:20:09.192Z,2.40
2023-02-18T19:23:33.370Z,2.50
2023-02-18T19:26:34.118Z,1.90
2023-02-18T19:29:59.216Z,1.93
2023-02-18T19:33:13.223Z,1.80
2023-02-18T19:36:27.258Z,2.70
2023-02-18T19:39:27.157Z,2.20
2023-02-18T19:42:51.201Z,1.93
2023-02-18T19:46:04.432Z,2.67
2023-02-18T19:49:31.214Z,2.33
2023-02-18T19:52:43.193Z,2.37
2023-02-18T19:55:56.250Z,1.60
2023-02-18T19:58:56.298Z,2.30
2023-02-18T20:02:08.340Z,2.17
2023-02-18T20:05:35.292Z,2.07
2023-02-18T20:08:35.337Z,2.63
2023-02-18T20:11:48.454Z,2.30
2023-02-18T20:15:00.371Z,2.50
2023-02-18T20:18:15.420Z,2.00
2023-02-18T20:21:29.331Z,2.73
2023-02-18T20:24:53.371Z,3.20
2023-02-18T20:28:05.364Z,3.20
2023-02-18T20:31:30.456Z,2.70
2023-02-18T20:34:42.364Z,2.70
2023-02-18T20:38:08.441Z,2.55
2023-02-18T20:41:08.691Z,3.15
2023-02-18T20:44:32.414Z,3.00
2023-02-18T20:47:32.441Z,2.40
2023-02-18T20:50:44.460Z,2.03
2023-02-18T20:53:58.462Z,2.47
2023-02-18T20:57:10.482Z,3.65
2023-02-18T21:00:11.626Z,3.60
2023-02-18T21:03:23.434Z,4.55
2023-02-18T21:06:36.460Z,4.30
2023-02-18T21:10:03.500Z,3.60
2023-02-18T21:13:03.487Z,3.00
2023-02-18T21:16:28.501Z,4.80
2023-02-18T21:19:40.538Z,2.90
2023-02-18T21:22:54.163Z,4.00
2023-02-18T21:26:06.524Z,3.23
2023-02-18T21:29:30.568Z,3.80
2023-02-18T21:32:30.706Z,3.60
2023-02-18T21:35:42.570Z,4.20
2023-02-18T21:38:42.578Z,4.40
2023-02-18T21:42:09.605Z,3.77
2023-02-18T21:45:09.537Z,5.13
2023-02-18T21:48:23.901Z,3.93
2023-02-18T21:51:41.289Z,5.20
2023-02-18T21:55:05.627Z,4.37
2023-02-18T21:58:19.640Z,4.67
2023-02-18T22:01:32.701Z,4.00
2023-02-18T22:04:57.659Z,5.00
2023-02-18T22:07:57.698Z,4.63
2023-02-18T22:11:09.922Z,5.07
2023-02-18T22:14:23.669Z,4.33
2023-02-18T22:17:35.676Z,6.45
2023-02-18T22:20:47.731Z,6.85
2023-02-18T22:23:59.723Z,4.40
2023-02-18T22:27:11.685Z,5.90
2023-02-18T22:30:37.713Z,6.40
2023-02-18T22:33:49.741Z,7.60
2023-02-18T22:37:04.745Z,4.77
2023-02-18T22:40:04.803Z,5.65
2023-02-18T22:43:18.788Z,6.27
2023-02-18T22:46:32.735Z,7.90
2023-02-18T22:49:48.813Z,6.23
2023-02-18T22:52:48.768Z,7.53
2023-02-18T22:56:00.809Z,8.30
2023-02-18T22:59:12.871Z,8.23
2023-02-18T23:02:38.804Z,8.65
2023-02-18T23:05:38.912Z,7.63
2023-02-18T23:09:03.855Z,8.63
2023-02-18T23:12:15.858Z,8.37
2023-02-18T23:15:28.071Z,9.63
2023-02-18T23:18:41.865Z,7.57
2023-02-18T23:21:54.872Z,8.37
2023-02-18T23:25:06.864Z,9.95
2023-02-18T23:28:18.996Z,10.43
2023-02-18T23:31:18.952Z,8.13
2023-02-18T23:34:47.934Z,9.10
2023-02-18T23:38:08.570Z,8.75
2023-02-18T23:41:32.930Z,8.10
2023-02-18T23:44:44.948Z,7.45
2023-02-18T23:47:56.926Z,7.67
2023-02-18T23:51:11.309Z,8.40
2023-02-18T23:54:35.060Z,7.87
2023-02-18T23:57:35.052Z,7.65
